sensor_id;sensor_type;location;lat;lon;timestamp;temperature;humidity
26947;DHT22;14501;52.282;10.560;2023-03-04T00:00:21;2.70;99.90
26947;DHT22;14501;52.282;10.560;2023-03-04T00:02:47;2.90;99.90
26947;DHT22;14501;52.282;10.560;2023-03-04T00:05:12;2.90;99.90
26947;DHT22;14501;52.282;10.560;2023-03-04T00:07:38;2.90;99.90
26947;DHT22;14501;52.282;10.560;2023-03-04T00:10:04;3.00;99.90
26947;DHT22;14501;52.282;10.560;2023-03-04T00:12:30;3.10;99.90
26947;DHT22;14501;52.282;10.560;2023-03-04T00:14:56;3.20;99.90
26947;DHT22;14501;52.282;10.560;2023-03-04T00:17:21;3.30;99.90
26947;DHT22;14501;52.282;10.560;2023-03-04T00:19:47;3.30;99.90
26947;DHT22;14501;52.282;10.560;2023-03-04T00:22:12;3.60;99.90
26947;DHT22;14501;52.282;10.560;2023-03-04T00:24:38;3.40;99.90
26947;DHT22;14501;52.282;10.560;2023-03-04T00:27:04;3.50;99.90
26947;DHT22;14501;52.282;10.560;2023-03-04T00:29:29;3.60;99.90
26947;DHT22;14501;52.282;10.560;2023-03-04T00:31:55;3.60;99.90
26947;DHT22;14501;52.282;10.560;2023-03-04T00:34:21;3.60;99.90
26947;DHT22;14501;52.282;10.560;2023-03-04T00:36:46;3.70;99.90
26947;DHT22;14501;52.282;10.560;2023-03-04T00:39:12;3.70;99.90
26947;DHT22;14501;52.282;10.560;2023-03-04T00:41:38;3.80;99.90
26947;DHT22;14501;52.282;10.560;2023-03-04T00:44:04;3.70;99.90
26947;DHT22;14501;52.282;10.560;2023-03-04T00:46:30;3.90;99.90
26947;DHT22;14501;52.282;10.560;2023-03-04T00:48:56;3.90;99.90
26947;DHT22;14501;52.282;10.560;2023-03-04T00:51:21;3.90;99.90
26947;DHT22;14501;52.282;10.560;2023-03-04T00:56:13;4.00;99.90
26947;DHT22;14501;52.282;10.560;2023-03-04T00:58:39;4.00;99.90
26947;DHT22;14501;52.282;10.560;2023-03-04T01:01:06;4.00;99.90
26947;DHT22;14501;52.282;10.560;2023-03-04T01:03:32;3.90;99.90
26947;DHT22;14501;52.282;10.560;2023-03-04T01:05:58;6.20;99.90
26947;DHT22;14501;52.282;10.560;2023-03-04T01:08:25;5.60;99.90
26947;DHT22;14501;52.282;10.560;2023-03-04T01:10:51;4.10;99.90
26947;DHT22;14501;52.282;10.560;2023-03-04T01:18:08;4.20;99.90
26947;DHT22;14501;52.282;10.560;2023-03-04T01:23:00;4.20;99.90
26947;DHT22;14501;52.282;10.560;2023-03-04T01:25:25;4.20;99.90
26947;DHT22;14501;52.282;10.560;2023-03-04T01:27:51;4.20;99.90
26947;DHT22;14501;52.282;10.560;2023-03-04T01:30:17;4.30;99.90
26947;DHT22;14501;52.282;10.560;2023-03-04T01:32:43;5.90;99.90
26947;DHT22;14501;52.282;10.560;2023-03-04T01:35:08;4.20;99.90
26947;DHT22;14501;52.282;10.560;2023-03-04T01:37:34;4.30;99.90
26947;DHT22;14501;52.282;10.560;2023-03-04T01:42:28;4.30;99.90
26947;DHT22;14501;52.282;10.560;2023-03-04T01:44:55;4.30;99.90
26947;DHT22;14501;52.282;10.560;2023-03-04T01:47:22;4.30;99.90
26947;DHT22;14501;52.282;10.560;2023-03-04T01:49:53;4.30;99.90
26947;DHT22;14501;52.282;10.560;2023-03-04T01:52:19;4.30;99.90
26947;DHT22;14501;52.282;10.560;2023-03-04T01:54:45;4.40;99.90
26947;DHT22;14501;52.282;10.560;2023-03-04T01:57:16;4.40;99.90
26947;DHT22;14501;52.282;10.560;2023-03-04T01:59:42;4.40;99.90
26947;DHT22;14501;52.282;10.560;2023-03-04T02:02:08;4.40;99.90
26947;DHT22;14501;52.282;10.560;2023-03-04T02:04:34;4.50;99.90
26947;DHT22;14501;52.282;10.560;2023-03-04T02:07:01;4.50;99.90
26947;DHT22;14501;52.282;10.560;2023-03-04T02:09:28;4.40;99.90
26947;DHT22;14501;52.282;10.560;2023-03-04T02:11:54;4.50;99.90
26947;DHT22;14501;52.282;10.560;2023-03-04T02:14:21;4.40;99.90
26947;DHT22;14501;52.282;10.560;2023-03-04T02:16:47;4.40;99.90
26947;DHT22;14501;52.282;10.560;2023-03-04T02:19:41;4.50;99.90
26947;DHT22;14501;52.282;10.560;2023-03-04T02:22:09;4.40;99.90
26947;DHT22;14501;52.282;10.560;2023-03-04T02:27:03;4.50;99.90
26947;DHT22;14501;52.282;10.560;2023-03-04T02:29:29;4.50;99.90
26947;DHT22;14501;52.282;10.560;2023-03-04T02:31:54;5.00;99.90
26947;DHT22;14501;52.282;10.560;2023-03-04T02:36:47;4.50;99.90
26947;DHT22;14501;52.282;10.560;2023-03-04T02:41:46;4.60;99.90
26947;DHT22;14501;52.282;10.560;2023-03-04T02:44:27;4.60;99.90
26947;DHT22;14501;52.282;10.560;2023-03-04T02:46:52;4.60;99.90
26947;DHT22;14501;52.282;10.560;2023-03-04T02:49:19;4.60;99.90
26947;DHT22;14501;52.282;10.560;2023-03-04T02:51:45;4.50;99.90
26947;DHT22;14501;52.282;10.560;2023-03-04T02:54:22;4.60;99.90
26947;DHT22;14501;52.282;10.560;2023-03-04T02:56:53;4.60;99.90
26947;DHT22;14501;52.282;10.560;2023-03-04T02:59:19;4.60;99.90
26947;DHT22;14501;52.282;10.560;2023-03-04T03:01:45;4.60;99.90
26947;DHT22;14501;52.282;10.560;2023-03-04T03:04:11;4.60;99.90
26947;DHT22;14501;52.282;10.560;2023-03-04T03:06:38;4.60;99.90
26947;DHT22;14501;52.282;10.560;2023-03-04T03:09:04;4.60;99.90
26947;DHT22;14501;52.282;10.560;2023-03-04T03:11:30;4.60;99.90
26947;DHT22;14501;52.282;10.560;2023-03-04T03:13:56;4.60;99.90
26947;DHT22;14501;52.282;10.560;2023-03-04T03:16:21;4.50;99.90
26947;DHT22;14501;52.282;10.560;2023-03-04T03:18:47;4.50;99.90
26947;DHT22;14501;52.282;10.560;2023-03-04T03:21:13;4.50;99.90
26947;DHT22;14501;52.282;10.560;2023-03-04T03:23:38;4.50;99.90
26947;DHT22;14501;52.282;10.560;2023-03-04T03:26:04;3.90;99.90
26947;DHT22;14501;52.282;10.560;2023-03-04T03:28:29;5.90;99.90
26947;DHT22;14501;52.282;10.560;2023-03-04T03:30:55;4.60;99.90
26947;DHT22;14501;52.282;10.560;2023-03-04T03:33:21;4.60;99.90
26947;DHT22;14501;52.282;10.560;2023-03-04T03:35:47;4.60;99.90
26947;DHT22;14501;52.282;10.560;2023-03-04T03:38:12;4.50;99.90
26947;DHT22;14501;52.282;10.560;2023-03-04T03:45:30;4.60;99.90
26947;DHT22;14501;52.282;10.560;2023-03-04T03:47:55;4.60;99.90
26947;DHT22;14501;52.282;10.560;2023-03-04T03:50:21;4.60;99.90
26947;DHT22;14501;52.282;10.560;2023-03-04T03:52:47;4.60;99.90
26947;DHT22;14501;52.282;10.560;2023-03-04T03:55:12;4.50;99.90
26947;DHT22;14501;52.282;10.560;2023-03-04T03:57:38;4.50;99.90
26947;DHT22;14501;52.282;10.560;2023-03-04T04:00:04;4.50;99.90
26947;DHT22;14501;52.282;10.560;2023-03-04T04:02:30;4.50;99.90
26947;DHT22;14501;52.282;10.560;2023-03-04T04:04:56;4.40;99.90
26947;DHT22;14501;52.282;10.560;2023-03-04T04:07:22;4.50;99.90
26947;DHT22;14501;52.282;10.560;2023-03-04T04:12:14;4.60;99.90
26947;DHT22;14501;52.282;10.560;2023-03-04T04:14:41;4.40;99.90
26947;DHT22;14501;52.282;10.560;2023-03-04T04:17:07;4.30;99.90
26947;DHT22;14501;52.282;10.560;2023-03-04T04:19:33;4.40;99.90
26947;DHT22;14501;52.282;10.560;2023-03-04T04:24:25;4.40;99.90
26947;DHT22;14501;52.282;10.560;2023-03-04T04:26:51;4.40;99.90
26947;DHT22;14501;52.282;10.560;2023-03-04T04:29:16;4.40;99.90
26947;DHT22;14501;52.282;10.560;2023-03-04T04:34:08;4.40;99.90
26947;DHT22;14501;52.282;10.560;2023-03-04T04:36:33;4.50;99.90
26947;DHT22;14501;52.282;10.560;2023-03-04T04:38:59;4.50;99.90
26947;DHT22;14501;52.282;10.560;2023-03-04T04:41:27;4.50;99.90
26947;DHT22;14501;52.282;10.560;2023-03-04T04:43:54;4.40;99.90
26947;DHT22;14501;52.282;10.560;2023-03-04T04:48:46;4.50;99.90
26947;DHT22;14501;52.282;10.560;2023-03-04T04:51:11;4.40;99.90
26947;DHT22;14501;52.282;10.560;2023-03-04T04:53:37;4.40;99.90
26947;DHT22;14501;52.282;10.560;2023-03-04T04:56:15;4.40;99.90
26947;DHT22;14501;52.282;10.560;2023-03-04T04:58:41;4.40;99.90
26947;DHT22;14501;52.282;10.560;2023-03-04T05:01:07;4.30;99.90
26947;DHT22;14501;52.282;10.560;2023-03-04T05:05:59;4.40;99.90
26947;DHT22;14501;52.282;10.560;2023-03-04T05:08:25;4.30;99.90
26947;DHT22;14501;52.282;10.560;2023-03-04T05:10:51;4.40;99.90
26947;DHT22;14501;52.282;10.560;2023-03-04T05:13:17;4.40;99.90
26947;DHT22;14501;52.282;10.560;2023-03-04T05:15:46;4.40;99.90
26947;DHT22;14501;52.282;10.560;2023-03-04T05:18:12;4.30;99.90
26947;DHT22;14501;52.282;10.560;2023-03-04T05:20:38;4.40;99.90
26947;DHT22;14501;52.282;10.560;2023-03-04T05:27:55;4.40;99.90
26947;DHT22;14501;52.282;10.560;2023-03-04T05:35:13;4.40;99.90
26947;DHT22;14501;52.282;10.560;2023-03-04T05:40:05;4.40;99.90
26947;DHT22;14501;52.282;10.560;2023-03-04T05:42:31;4.30;99.90
26947;DHT22;14501;52.282;10.560;2023-03-04T05:44:56;4.30;99.90
26947;DHT22;14501;52.282;10.560;2023-03-04T05:57:06;4.30;99.90
26947;DHT22;14501;52.282;10.560;2023-03-04T05:59:31;4.30;99.90
26947;DHT22;14501;52.282;10.560;2023-03-04T06:01:57;4.20;99.90
26947;DHT22;14501;52.282;10.560;2023-03-04T06:04:22;4.20;99.90
26947;DHT22;14501;52.282;10.560;2023-03-04T06:06:48;6.10;99.90
26947;DHT22;14501;52.282;10.560;2023-03-04T06:09:14;4.30;99.90
26947;DHT22;14501;52.282;10.560;2023-03-04T06:11:40;4.30;99.90
26947;DHT22;14501;52.282;10.560;2023-03-04T06:14:06;4.30;99.90
26947;DHT22;14501;52.282;10.560;2023-03-04T06:16:32;4.20;99.90
26947;DHT22;14501;52.282;10.560;2023-03-04T06:21:23;4.20;99.90
26947;DHT22;14501;52.282;10.560;2023-03-04T06:26:15;4.30;99.90
26947;DHT22;14501;52.282;10.560;2023-03-04T06:28:41;4.30;99.90
26947;DHT22;14501;52.282;10.560;2023-03-04T06:31:07;7.00;99.90
26947;DHT22;14501;52.282;10.560;2023-03-04T06:35:59;4.30;99.90
26947;DHT22;14501;52.282;10.560;2023-03-04T06:38:25;4.20;99.90
26947;DHT22;14501;52.282;10.560;2023-03-04T06:40:51;4.30;99.90
26947;DHT22;14501;52.282;10.560;2023-03-04T06:43:17;5.20;99.90
26947;DHT22;14501;52.282;10.560;2023-03-04T06:45:43;4.30;99.90
26947;DHT22;14501;52.282;10.560;2023-03-04T06:48:08;4.30;99.90
26947;DHT22;14501;52.282;10.560;2023-03-04T06:53:00;4.20;99.90
26947;DHT22;14501;52.282;10.560;2023-03-04T06:55:25;4.30;99.90
26947;DHT22;14501;52.282;10.560;2023-03-04T06:57:51;4.20;99.90
26947;DHT22;14501;52.282;10.560;2023-03-04T07:00:17;4.20;99.90
26947;DHT22;14501;52.282;10.560;2023-03-04T07:02:44;4.30;99.90
26947;DHT22;14501;52.282;10.560;2023-03-04T07:05:10;4.20;99.90
26947;DHT22;14501;52.282;10.560;2023-03-04T07:07:36;4.30;99.90
26947;DHT22;14501;52.282;10.560;2023-03-04T07:10:02;4.20;99.90
26947;DHT22;14501;52.282;10.560;2023-03-04T07:12:28;4.30;99.90
26947;DHT22;14501;52.282;10.560;2023-03-04T07:14:54;4.30;99.90
26947;DHT22;14501;52.282;10.560;2023-03-04T07:22:11;4.20;99.90
26947;DHT22;14501;52.282;10.560;2023-03-04T07:27:03;4.60;99.90
26947;DHT22;14501;52.282;10.560;2023-03-04T07:29:28;5.10;99.90
26947;DHT22;14501;52.282;10.560;2023-03-04T07:34:20;4.70;99.90
26947;DHT22;14501;52.282;10.560;2023-03-04T07:39:12;4.80;99.90
26947;DHT22;14501;52.282;10.560;2023-03-04T07:41:38;5.10;99.90
26947;DHT22;14501;52.282;10.560;2023-03-04T07:44:06;4.80;99.90
26947;DHT22;14501;52.282;10.560;2023-03-04T07:46:32;4.80;99.90
26947;DHT22;14501;52.282;10.560;2023-03-04T07:51:25;5.10;99.90
26947;DHT22;14501;52.282;10.560;2023-03-04T07:53:54;5.00;99.90
26947;DHT22;14501;52.282;10.560;2023-03-04T07:56:22;4.90;99.90
26947;DHT22;14501;52.282;10.560;2023-03-04T07:58:49;5.10;99.90
26947;DHT22;14501;52.282;10.560;2023-03-04T08:01:20;5.10;99.90
26947;DHT22;14501;52.282;10.560;2023-03-04T08:03:46;5.20;99.90
26947;DHT22;14501;52.282;10.560;2023-03-04T08:06:14;7.70;99.90
26947;DHT22;14501;52.282;10.560;2023-03-04T08:08:40;5.10;99.90
26947;DHT22;14501;52.282;10.560;2023-03-04T08:11:10;5.10;99.90
26947;DHT22;14501;52.282;10.560;2023-03-04T08:13:36;5.30;99.90
26947;DHT22;14501;52.282;10.560;2023-03-04T08:18:28;5.50;99.90
26947;DHT22;14501;52.282;10.560;2023-03-04T08:20:54;5.80;99.90
26947;DHT22;14501;52.282;10.560;2023-03-04T08:23:19;8.50;99.90
26947;DHT22;14501;52.282;10.560;2023-03-04T08:28:11;5.40;99.90
26947;DHT22;14501;52.282;10.560;2023-03-04T08:30:38;5.30;99.90
26947;DHT22;14501;52.282;10.560;2023-03-04T08:33:04;5.40;99.90
26947;DHT22;14501;52.282;10.560;2023-03-04T08:35:30;5.30;99.90
26947;DHT22;14501;52.282;10.560;2023-03-04T08:37:56;5.40;99.90
26947;DHT22;14501;52.282;10.560;2023-03-04T08:40:21;5.30;99.90
26947;DHT22;14501;52.282;10.560;2023-03-04T08:42:47;5.40;99.90
26947;DHT22;14501;52.282;10.560;2023-03-04T08:45:13;5.40;99.90
26947;DHT22;14501;52.282;10.560;2023-03-04T08:47:39;5.50;99.90
26947;DHT22;14501;52.282;10.560;2023-03-04T08:50:06;5.50;99.90
26947;DHT22;14501;52.282;10.560;2023-03-04T08:52:31;5.60;99.90
26947;DHT22;14501;52.282;10.560;2023-03-04T09:02:15;6.60;99.90
26947;DHT22;14501;52.282;10.560;2023-03-04T09:04:40;6.80;99.90
26947;DHT22;14501;52.282;10.560;2023-03-04T09:07:06;6.70;99.90
26947;DHT22;14501;52.282;10.560;2023-03-04T09:09:33;8.20;99.90
26947;DHT22;14501;52.282;10.560;2023-03-04T09:11:58;6.60;99.90
26947;DHT22;14501;52.282;10.560;2023-03-04T09:19:25;6.70;99.90
26947;DHT22;14501;52.282;10.560;2023-03-04T09:21:52;6.80;99.90
26947;DHT22;14501;52.282;10.560;2023-03-04T09:24:19;6.50;99.90
26947;DHT22;14501;52.282;10.560;2023-03-04T09:26:49;6.50;99.90
26947;DHT22;14501;52.282;10.560;2023-03-04T09:29:15;6.50;99.90
26947;DHT22;14501;52.282;10.560;2023-03-04T09:34:06;6.60;99.90
26947;DHT22;14501;52.282;10.560;2023-03-04T09:36:32;5.80;99.90
26947;DHT22;14501;52.282;10.560;2023-03-04T09:39:02;7.40;99.90
26947;DHT22;14501;52.282;10.560;2023-03-04T09:41:49;6.80;99.90
26947;DHT22;14501;52.282;10.560;2023-03-04T09:46:49;7.00;99.90
26947;DHT22;14501;52.282;10.560;2023-03-04T09:49:16;7.60;99.90
26947;DHT22;14501;52.282;10.560;2023-03-04T09:54:45;7.30;99.90
26947;DHT22;14501;52.282;10.560;2023-03-04T10:00:25;7.70;99.90
26947;DHT22;14501;52.282;10.560;2023-03-04T10:03:16;7.90;99.90
26947;DHT22;14501;52.282;10.560;2023-03-04T10:05:50;7.80;99.90
26947;DHT22;14501;52.282;10.560;2023-03-04T10:10:59;8.10;99.90
26947;DHT22;14501;52.282;10.560;2023-03-04T10:13:33;8.20;99.90
26947;DHT22;14501;52.282;10.560;2023-03-04T10:16:03;8.20;99.90
26947;DHT22;14501;52.282;10.560;2023-03-04T10:18:35;7.90;99.90
26947;DHT22;14501;52.282;10.560;2023-03-04T10:23:39;8.10;99.90
26947;DHT22;14501;52.282;10.560;2023-03-04T10:26:14;8.00;99.90
26947;DHT22;14501;52.282;10.560;2023-03-04T10:28:40;8.00;99.90
26947;DHT22;14501;52.282;10.560;2023-03-04T10:31:15;7.90;99.90
26947;DHT22;14501;52.282;10.560;2023-03-04T10:33:42;8.00;99.90
26947;DHT22;14501;52.282;10.560;2023-03-04T10:38:45;7.50;99.90
26947;DHT22;14501;52.282;10.560;2023-03-04T10:41:22;7.30;99.90
26947;DHT22;14501;52.282;10.560;2023-03-04T10:46:21;6.90;99.90
26947;DHT22;14501;52.282;10.560;2023-03-04T10:48:47;6.70;99.90
26947;DHT22;14501;52.282;10.560;2023-03-04T10:51:22;7.40;99.90
26947;DHT22;14501;52.282;10.560;2023-03-04T10:53:51;6.60;99.90
26947;DHT22;14501;52.282;10.560;2023-03-04T10:56:40;6.70;99.90
26947;DHT22;14501;52.282;10.560;2023-03-04T11:02:19;7.40;99.90
26947;DHT22;14501;52.282;10.560;2023-03-04T11:04:51;7.30;99.90
26947;DHT22;14501;52.282;10.560;2023-03-04T11:07:18;7.80;99.90
26947;DHT22;14501;52.282;10.560;2023-03-04T11:09:44;7.10;99.90
26947;DHT22;14501;52.282;10.560;2023-03-04T11:12:12;6.90;99.90
26947;DHT22;14501;52.282;10.560;2023-03-04T11:14:46;7.00;99.90
26947;DHT22;14501;52.282;10.560;2023-03-04T11:17:38;7.10;99.90
26947;DHT22;14501;52.282;10.560;2023-03-04T11:22:33;7.80;99.90
26947;DHT22;14501;52.282;10.560;2023-03-04T11:25:05;8.20;99.90
26947;DHT22;14501;52.282;10.560;2023-03-04T11:27:43;7.90;99.90
26947;DHT22;14501;52.282;10.560;2023-03-04T11:33:02;7.30;99.90
26947;DHT22;14501;52.282;10.560;2023-03-04T11:38:05;7.20;99.90
26947;DHT22;14501;52.282;10.560;2023-03-04T11:40:42;7.00;99.90
26947;DHT22;14501;52.282;10.560;2023-03-04T11:46:46;6.60;99.90
26947;DHT22;14501;52.282;10.560;2023-03-04T11:52:01;6.40;99.90
26947;DHT22;14501;52.282;10.560;2023-03-04T11:59:55;6.90;99.90
26947;DHT22;14501;52.282;10.560;2023-03-04T12:02:42;7.80;99.90
26947;DHT22;14501;52.282;10.560;2023-03-04T12:08:15;8.10;99.90
26947;DHT22;14501;52.282;10.560;2023-03-04T12:13:54;8.50;99.90
26947;DHT22;14501;52.282;10.560;2023-03-04T12:22:20;8.00;99.90
26947;DHT22;14501;52.282;10.560;2023-03-04T12:24:56;7.90;99.90
26947;DHT22;14501;52.282;10.560;2023-03-04T12:30:31;7.40;99.90
26947;DHT22;14501;52.282;10.560;2023-03-04T12:33:21;7.20;99.90
26947;DHT22;14501;52.282;10.560;2023-03-04T12:44:19;7.60;99.90
26947;DHT22;14501;52.282;10.560;2023-03-04T12:53:29;8.10;99.90
26947;DHT22;14501;52.282;10.560;2023-03-04T12:55:58;8.30;99.90
26947;DHT22;14501;52.282;10.560;2023-03-04T12:58:30;8.20;99.90
26947;DHT22;14501;52.282;10.560;2023-03-04T13:03:38;8.10;99.90
26947;DHT22;14501;52.282;10.560;2023-03-04T13:09:04;8.00;99.90
26947;DHT22;14501;52.282;10.560;2023-03-04T13:12:02;7.80;99.90
26947;DHT22;14501;52.282;10.560;2023-03-04T13:14:30;7.90;99.90
26947;DHT22;14501;52.282;10.560;2023-03-04T13:16:57;8.00;99.90
26947;DHT22;14501;52.282;10.560;2023-03-04T14:06:53;6.40;99.90
26947;DHT22;14501;52.282;10.560;2023-03-04T14:09:29;6.20;99.90
26947;DHT22;14501;52.282;10.560;2023-03-04T14:12:03;6.20;99.90
26947;DHT22;14501;52.282;10.560;2023-03-04T14:14:47;6.20;99.90
26947;DHT22;14501;52.282;10.560;2023-03-04T14:17:20;6.20;99.90
26947;DHT22;14501;52.282;10.560;2023-03-04T14:19:47;6.40;99.90
26947;DHT22;14501;52.282;10.560;2023-03-04T14:22:28;6.40;99.90
26947;DHT22;14501;52.282;10.560;2023-03-04T14:27:20;6.70;99.90
26947;DHT22;14501;52.282;10.560;2023-03-04T14:29:54;6.80;99.90
26947;DHT22;14501;52.282;10.560;2023-03-04T14:32:20;6.70;99.90
26947;DHT22;14501;52.282;10.560;2023-03-04T14:34:48;6.60;99.90
26947;DHT22;14501;52.282;10.560;2023-03-04T14:40:22;6.50;99.90
26947;DHT22;14501;52.282;10.560;2023-03-04T14:42:49;6.40;99.90
26947;DHT22;14501;52.282;10.560;2023-03-04T14:45:18;6.40;99.90
26947;DHT22;14501;52.282;10.560;2023-03-04T14:47:45;6.30;99.90
26947;DHT22;14501;52.282;10.560;2023-03-04T14:50:15;6.20;99.90
26947;DHT22;14501;52.282;10.560;2023-03-04T14:52:45;6.10;99.90
26947;DHT22;14501;52.282;10.560;2023-03-04T14:57:41;6.10;99.90
26947;DHT22;14501;52.282;10.560;2023-03-04T15:00:25;6.20;99.90
26947;DHT22;14501;52.282;10.560;2023-03-04T15:03:39;6.30;99.90
26947;DHT22;14501;52.282;10.560;2023-03-04T15:05:46;6.20;99.90
26947;DHT22;14501;52.282;10.560;2023-03-04T15:08:21;6.10;99.90
26947;DHT22;14501;52.282;10.560;2023-03-04T15:11:03;6.10;99.90
26947;DHT22;14501;52.282;10.560;2023-03-04T15:13:42;5.90;99.90
26947;DHT22;14501;52.282;10.560;2023-03-04T15:16:10;5.90;99.90
26947;DHT22;14501;52.282;10.560;2023-03-04T15:18:36;5.90;99.90
26947;DHT22;14501;52.282;10.560;2023-03-04T15:21:48;5.90;99.90
26947;DHT22;14501;52.282;10.560;2023-03-04T15:23:49;6.00;99.90
26947;DHT22;14501;52.282;10.560;2023-03-04T15:26:14;6.10;99.90
26947;DHT22;14501;52.282;10.560;2023-03-04T15:28:40;6.20;99.90
26947;DHT22;14501;52.282;10.560;2023-03-04T15:31:17;6.10;99.90
26947;DHT22;14501;52.282;10.560;2023-03-04T15:33:44;6.20;99.90
26947;DHT22;14501;52.282;10.560;2023-03-04T15:36:13;6.20;99.90
26947;DHT22;14501;52.282;10.560;2023-03-04T15:38:41;6.30;99.90
26947;DHT22;14501;52.282;10.560;2023-03-04T15:41:10;6.20;99.90
26947;DHT22;14501;52.282;10.560;2023-03-04T15:43:36;6.20;99.90
26947;DHT22;14501;52.282;10.560;2023-03-04T15:46:02;6.10;99.90
26947;DHT22;14501;52.282;10.560;2023-03-04T15:48:28;6.00;99.90
26947;DHT22;14501;52.282;10.560;2023-03-04T15:50:57;5.90;99.90
26947;DHT22;14501;52.282;10.560;2023-03-04T15:53:27;7.50;99.90
26947;DHT22;14501;52.282;10.560;2023-03-04T15:55:56;6.10;99.90
26947;DHT22;14501;52.282;10.560;2023-03-04T15:58:22;5.50;99.90
26947;DHT22;14501;52.282;10.560;2023-03-04T16:00:47;5.50;99.90
26947;DHT22;14501;52.282;10.560;2023-03-04T16:03:15;5.40;99.90
26947;DHT22;14501;52.282;10.560;2023-03-04T16:05:42;5.40;99.90
26947;DHT22;14501;52.282;10.560;2023-03-04T16:08:11;7.00;99.90
26947;DHT22;14501;52.282;10.560;2023-03-04T16:10:37;5.20;99.90
26947;DHT22;14501;52.282;10.560;2023-03-04T16:13:03;5.20;99.90
26947;DHT22;14501;52.282;10.560;2023-03-04T16:15:29;5.20;99.90
26947;DHT22;14501;52.282;10.560;2023-03-04T16:17:56;5.10;99.90
26947;DHT22;14501;52.282;10.560;2023-03-04T16:20:24;6.40;99.90
26947;DHT22;14501;52.282;10.560;2023-03-04T16:22:55;5.20;99.90
26947;DHT22;14501;52.282;10.560;2023-03-04T16:25:23;5.20;99.90
26947;DHT22;14501;52.282;10.560;2023-03-04T16:27:54;5.10;99.90
26947;DHT22;14501;52.282;10.560;2023-03-04T16:30:23;5.10;99.90
26947;DHT22;14501;52.282;10.560;2023-03-04T16:32:49;5.10;99.90
26947;DHT22;14501;52.282;10.560;2023-03-04T16:35:16;5.00;99.90
26947;DHT22;14501;52.282;10.560;2023-03-04T16:37:42;5.00;99.90
26947;DHT22;14501;52.282;10.560;2023-03-04T16:40:14;5.10;99.90
26947;DHT22;14501;52.282;10.560;2023-03-04T16:42:41;5.10;99.90
26947;DHT22;14501;52.282;10.560;2023-03-04T16:45:15;5.00;99.90
26947;DHT22;14501;52.282;10.560;2023-03-04T16:47:41;5.10;99.90
26947;DHT22;14501;52.282;10.560;2023-03-04T16:50:12;5.10;99.90
26947;DHT22;14501;52.282;10.560;2023-03-04T16:52:37;4.90;99.90
26947;DHT22;14501;52.282;10.560;2023-03-04T16:55:03;4.90;99.90
26947;DHT22;14501;52.282;10.560;2023-03-04T16:57:29;4.80;99.90
26947;DHT22;14501;52.282;10.560;2023-03-04T16:59:56;4.60;99.90
26947;DHT22;14501;52.282;10.560;2023-03-04T17:02:22;4.60;99.90
26947;DHT22;14501;52.282;10.560;2023-03-04T17:04:51;4.50;99.90
26947;DHT22;14501;52.282;10.560;2023-03-04T17:07:16;5.00;99.90
26947;DHT22;14501;52.282;10.560;2023-03-04T17:09:43;4.40;99.90
26947;DHT22;14501;52.282;10.560;2023-03-04T17:12:10;4.50;99.90
26947;DHT22;14501;52.282;10.560;2023-03-04T17:14:37;4.50;99.90
26947;DHT22;14501;52.282;10.560;2023-03-04T17:17:04;5.10;99.90
26947;DHT22;14501;52.282;10.560;2023-03-04T17:19:30;4.60;99.90
26947;DHT22;14501;52.282;10.560;2023-03-04T17:21:57;4.80;99.90
26947;DHT22;14501;52.282;10.560;2023-03-04T17:24:24;4.60;99.90
26947;DHT22;14501;52.282;10.560;2023-03-04T17:26:50;4.60;99.90
26947;DHT22;14501;52.282;10.560;2023-03-04T17:31:42;4.70;99.90
26947;DHT22;14501;52.282;10.560;2023-03-04T17:34:08;4.70;99.90
26947;DHT22;14501;52.282;10.560;2023-03-04T17:39:00;4.70;99.90
26947;DHT22;14501;52.282;10.560;2023-03-04T17:41:27;4.70;99.90
26947;DHT22;14501;52.282;10.560;2023-03-04T17:43:52;4.70;99.90
26947;DHT22;14501;52.282;10.560;2023-03-04T17:46:24;4.70;99.90
26947;DHT22;14501;52.282;10.560;2023-03-04T17:48:54;4.60;99.90
26947;DHT22;14501;52.282;10.560;2023-03-04T17:51:28;4.60;99.90
26947;DHT22;14501;52.282;10.560;2023-03-04T17:53:54;4.50;99.90
26947;DHT22;14501;52.282;10.560;2023-03-04T17:56:19;4.60;99.90
26947;DHT22;14501;52.282;10.560;2023-03-04T17:58:47;4.50;99.90
26947;DHT22;14501;52.282;10.560;2023-03-04T18:01:17;4.90;99.90
26947;DHT22;14501;52.282;10.560;2023-03-04T18:03:44;4.50;99.90
26947;DHT22;14501;52.282;10.560;2023-03-04T18:06:09;4.50;99.90
26947;DHT22;14501;52.282;10.560;2023-03-04T18:08:35;4.40;99.90
26947;DHT22;14501;52.282;10.560;2023-03-04T18:11:01;4.20;99.90
26947;DHT22;14501;52.282;10.560;2023-03-04T18:13:26;4.30;99.90
26947;DHT22;14501;52.282;10.560;2023-03-04T18:15:52;4.30;99.90
26947;DHT22;14501;52.282;10.560;2023-03-04T18:20:44;4.20;99.90
26947;DHT22;14501;52.282;10.560;2023-03-04T18:23:10;4.10;99.90
26947;DHT22;14501;52.282;10.560;2023-03-04T18:25:35;4.20;99.90
26947;DHT22;14501;52.282;10.560;2023-03-04T18:28:01;4.20;99.90
26947;DHT22;14501;52.282;10.560;2023-03-04T18:30:27;4.80;99.90
26947;DHT22;14501;52.282;10.560;2023-03-04T18:32:54;4.00;99.90
26947;DHT22;14501;52.282;10.560;2023-03-04T18:35:20;4.10;99.90
26947;DHT22;14501;52.282;10.560;2023-03-04T18:37:47;4.00;99.90
26947;DHT22;14501;52.282;10.560;2023-03-04T18:40:14;3.90;99.90
26947;DHT22;14501;52.282;10.560;2023-03-04T18:42:40;4.00;99.90
26947;DHT22;14501;52.282;10.560;2023-03-04T18:45:09;3.90;99.90
26947;DHT22;14501;52.282;10.560;2023-03-04T18:47:36;4.00;99.90
26947;DHT22;14501;52.282;10.560;2023-03-04T18:50:02;3.90;99.90
26947;DHT22;14501;52.282;10.560;2023-03-04T18:52:28;4.00;99.90
26947;DHT22;14501;52.282;10.560;2023-03-04T18:54:53;4.00;99.90
26947;DHT22;14501;52.282;10.560;2023-03-04T18:57:19;4.00;99.90
26947;DHT22;14501;52.282;10.560;2023-03-04T18:59:52;3.90;99.90
26947;DHT22;14501;52.282;10.560;2023-03-04T19:04:53;4.00;99.90
26947;DHT22;14501;52.282;10.560;2023-03-04T19:07:21;4.00;99.90
26947;DHT22;14501;52.282;10.560;2023-03-04T19:09:48;4.00;99.90
26947;DHT22;14501;52.282;10.560;2023-03-04T19:12:14;4.80;99.90
26947;DHT22;14501;52.282;10.560;2023-03-04T19:14:39;4.10;99.90
26947;DHT22;14501;52.282;10.560;2023-03-04T19:17:05;4.10;99.90
26947;DHT22;14501;52.282;10.560;2023-03-04T19:19:31;4.10;99.90
26947;DHT22;14501;52.282;10.560;2023-03-04T19:21:57;4.10;99.90
26947;DHT22;14501;52.282;10.560;2023-03-04T19:24:23;4.10;99.90
26947;DHT22;14501;52.282;10.560;2023-03-04T19:26:49;4.10;99.90
26947;DHT22;14501;52.282;10.560;2023-03-04T19:29:15;4.00;99.90
26947;DHT22;14501;52.282;10.560;2023-03-04T19:31:41;7.10;99.90
26947;DHT22;14501;52.282;10.560;2023-03-04T19:34:08;3.90;99.90
26947;DHT22;14501;52.282;10.560;2023-03-04T19:36:33;3.90;99.90
26947;DHT22;14501;52.282;10.560;2023-03-04T19:38:59;3.90;99.90